sensor_id;sensor_type;location;lat;lon;timestamp;pressure;altitude;pressure_sealevel;temperature;humidity
47811;BME280;33575;52.600;7.318;2022-09-09T00:00:47;100578.26;;;16.56;93.40
47811;BME280;33575;52.600;7.318;2022-09-09T00:03:17;100576.11;;;16.56;93.38
47811;BME280;33575;52.600;7.318;2022-09-09T00:05:48;100570.03;;;16.55;93.10
47811;BME280;33575;52.600;7.318;2022-09-09T00:08:19;100568.40;;;16.50;93.05
47811;BME280;33575;52.600;7.318;2022-09-09T00:10:45;100569.43;;;16.47;92.91
47811;BME280;33575;52.600;7.318;2022-09-09T00:13:19;100565.05;;;16.42;92.90
47811;BME280;33575;52.600;7.318;2022-09-09T00:15:54;100563.41;;;16.40;92.87
47811;BME280;33575;52.600;7.318;2022-09-09T00:18:22;100564.41;;;16.38;92.77
47811;BME280;33575;52.600;7.318;2022-09-09T00:20:49;100559.39;;;16.36;92.64
47811;BME280;33575;52.600;7.318;2022-09-09T00:23:23;100561.04;;;16.34;92.55
47811;BME280;33575;52.600;7.318;2022-09-09T00:25:58;100560.10;;;16.33;92.48
47811;BME280;33575;52.600;7.318;2022-09-09T00:28:19;100562.11;;;16.27;92.67
47811;BME280;33575;52.600;7.318;2022-09-09T00:30:47;100558.60;;;16.24;92.70
47811;BME280;33575;52.600;7.318;2022-09-09T00:33:20;100559.28;;;16.22;92.62
47811;BME280;33575;52.600;7.318;2022-09-09T00:35:49;100557.97;;;16.20;92.71
47811;BME280;33575;52.600;7.318;2022-09-09T00:38:20;100563.18;;;16.20;92.70
47811;BME280;33575;52.600;7.318;2022-09-09T00:40:52;100558.09;;;16.08;93.11
47811;BME280;33575;52.600;7.318;2022-09-09T00:43:26;100561.34;;;16.03;93.47
47811;BME280;33575;52.600;7.318;2022-09-09T00:46:02;100564.19;;;15.94;94.07
47811;BME280;33575;52.600;7.318;2022-09-09T00:48:22;100567.93;;;15.90;94.71
47811;BME280;33575;52.600;7.318;2022-09-09T00:50:55;100575.07;;;15.90;94.75
47811;BME280;33575;52.600;7.318;2022-09-09T00:53:28;100571.56;;;15.92;95.20
47811;BME280;33575;52.600;7.318;2022-09-09T00:55:56;100570.47;;;15.94;95.43
47811;BME280;33575;52.600;7.318;2022-09-09T00:58:21;100564.66;;;15.93;96.02
47811;BME280;33575;52.600;7.318;2022-09-09T01:00:55;100565.69;;;15.94;96.08
47811;BME280;33575;52.600;7.318;2022-09-09T01:03:29;100570.07;;;16.00;95.79
47811;BME280;33575;52.600;7.318;2022-09-09T01:06:00;100569.85;;;16.01;95.75
47811;BME280;33575;52.600;7.318;2022-09-09T01:08:36;100566.80;;;15.95;96.34
47811;BME280;33575;52.600;7.318;2022-09-09T01:10:54;100566.11;;;15.94;96.35
47811;BME280;33575;52.600;7.318;2022-09-09T01:13:26;100559.84;;;16.01;96.10
47811;BME280;33575;52.600;7.318;2022-09-09T01:15:54;100556.64;;;16.03;95.85
47811;BME280;33575;52.600;7.318;2022-09-09T01:18:27;100555.65;;;16.04;95.77
47811;BME280;33575;52.600;7.318;2022-09-09T01:21:02;100555.86;;;16.06;95.80
47811;BME280;33575;52.600;7.318;2022-09-09T01:23:38;100552.30;;;16.08;95.76
47811;BME280;33575;52.600;7.318;2022-09-09T01:28:27;100552.43;;;16.12;95.21
47811;BME280;33575;52.600;7.318;2022-09-09T01:30:56;100548.92;;;16.06;95.25
47811;BME280;33575;52.600;7.318;2022-09-09T01:33:26;100545.47;;;16.05;95.15
47811;BME280;33575;52.600;7.318;2022-09-09T01:36:00;100547.59;;;16.02;95.19
47811;BME280;33575;52.600;7.318;2022-09-09T01:38:28;100549.04;;;16.01;94.94
47811;BME280;33575;52.600;7.318;2022-09-09T01:40:57;100548.34;;;16.00;94.85
47811;BME280;33575;52.600;7.318;2022-09-09T01:43:28;100550.32;;;16.01;94.56
47811;BME280;33575;52.600;7.318;2022-09-09T01:46:00;100550.00;;;15.98;94.40
47811;BME280;33575;52.600;7.318;2022-09-09T01:48:30;100554.02;;;15.93;94.54
47811;BME280;33575;52.600;7.318;2022-09-09T01:50:59;100557.02;;;15.91;94.45
47811;BME280;33575;52.600;7.318;2022-09-09T01:53:29;100562.15;;;15.91;94.55
47811;BME280;33575;52.600;7.318;2022-09-09T01:56:08;100565.30;;;15.92;94.55
47811;BME280;33575;52.600;7.318;2022-09-09T01:58:37;100568.74;;;15.89;94.63
47811;BME280;33575;52.600;7.318;2022-09-09T02:01:07;100570.90;;;15.91;94.69
47811;BME280;33575;52.600;7.318;2022-09-09T02:03:32;100574.45;;;15.91;94.59
47811;BME280;33575;52.600;7.318;2022-09-09T02:06:08;100574.00;;;15.89;94.81
47811;BME280;33575;52.600;7.318;2022-09-09T02:08:38;100573.56;;;15.90;94.73
47811;BME280;33575;52.600;7.318;2022-09-09T02:11:06;100573.65;;;15.91;94.52
47811;BME280;33575;52.600;7.318;2022-09-09T02:13:36;100575.27;;;15.91;94.43
47811;BME280;33575;52.600;7.318;2022-09-09T02:16:07;100577.83;;;15.91;94.25
47811;BME280;33575;52.600;7.318;2022-09-09T02:18:37;100575.97;;;15.91;94.04
47811;BME280;33575;52.600;7.318;2022-09-09T02:21:05;100573.78;;;15.91;94.05
47811;BME280;33575;52.600;7.318;2022-09-09T02:23:35;100577.14;;;15.89;93.80
47811;BME280;33575;52.600;7.318;2022-09-09T02:26:04;100578.27;;;15.87;93.65
47811;BME280;33575;52.600;7.318;2022-09-09T02:28:36;100576.64;;;15.85;93.57
47811;BME280;33575;52.600;7.318;2022-09-09T02:31:06;100575.46;;;15.84;93.46
47811;BME280;33575;52.600;7.318;2022-09-09T02:33:39;100577.61;;;15.85;93.36
47811;BME280;33575;52.600;7.318;2022-09-09T02:36:08;100583.78;;;15.81;92.99
47811;BME280;33575;52.600;7.318;2022-09-09T02:38:40;100579.15;;;15.77;93.30
47811;BME280;33575;52.600;7.318;2022-09-09T02:41:07;100575.49;;;15.71;93.41
47811;BME280;33575;52.600;7.318;2022-09-09T02:43:37;100578.26;;;15.68;93.40
47811;BME280;33575;52.600;7.318;2022-09-09T02:46:17;100580.65;;;15.65;93.33
47811;BME280;33575;52.600;7.318;2022-09-09T02:48:45;100583.71;;;15.59;93.70
47811;BME280;33575;52.600;7.318;2022-09-09T02:51:15;100583.78;;;15.41;94.20
47811;BME280;33575;52.600;7.318;2022-09-09T02:53:43;100585.47;;;15.36;94.83
47811;BME280;33575;52.600;7.318;2022-09-09T02:56:14;100584.40;;;15.29;95.07
47811;BME280;33575;52.600;7.318;2022-09-09T02:58:40;100583.84;;;15.28;95.23
47811;BME280;33575;52.600;7.318;2022-09-09T03:01:10;100584.95;;;15.27;95.19
47811;BME280;33575;52.600;7.318;2022-09-09T03:03:40;100592.82;;;15.24;95.43
47811;BME280;33575;52.600;7.318;2022-09-09T03:06:11;100601.83;;;15.11;96.69
47811;BME280;33575;52.600;7.318;2022-09-09T03:08:44;100603.33;;;15.12;96.72
47811;BME280;33575;52.600;7.318;2022-09-09T03:11:12;100610.39;;;15.15;96.69
47811;BME280;33575;52.600;7.318;2022-09-09T03:13:42;100606.01;;;15.17;96.72
47811;BME280;33575;52.600;7.318;2022-09-09T03:16:12;100611.21;;;15.15;96.87
47811;BME280;33575;52.600;7.318;2022-09-09T03:18:43;100606.99;;;15.08;97.12
47811;BME280;33575;52.600;7.318;2022-09-09T03:21:13;100608.40;;;15.11;97.27
47811;BME280;33575;52.600;7.318;2022-09-09T03:23:43;100610.30;;;15.17;97.26
47811;BME280;33575;52.600;7.318;2022-09-09T03:26:14;100605.71;;;15.21;97.14
47811;BME280;33575;52.600;7.318;2022-09-09T03:28:45;100608.32;;;15.27;97.03
47811;BME280;33575;52.600;7.318;2022-09-09T03:31:15;100609.37;;;15.30;96.93
47811;BME280;33575;52.600;7.318;2022-09-09T03:33:45;100609.23;;;15.34;96.81
47811;BME280;33575;52.600;7.318;2022-09-09T03:36:15;100610.01;;;15.39;96.55
47811;BME280;33575;52.600;7.318;2022-09-09T03:38:46;100609.91;;;15.42;96.46
47811;BME280;33575;52.600;7.318;2022-09-09T03:41:16;100605.91;;;15.43;96.14
47811;BME280;33575;52.600;7.318;2022-09-09T03:43:47;100602.89;;;15.43;96.24
47811;BME280;33575;52.600;7.318;2022-09-09T03:46:17;100603.73;;;15.43;96.21
47811;BME280;33575;52.600;7.318;2022-09-09T03:48:47;100607.41;;;15.47;96.01
47811;BME280;33575;52.600;7.318;2022-09-09T03:51:18;100605.10;;;15.52;95.77
47811;BME280;33575;52.600;7.318;2022-09-09T03:53:48;100602.52;;;15.55;95.63
47811;BME280;33575;52.600;7.318;2022-09-09T03:56:18;100602.89;;;15.58;95.37
47811;BME280;33575;52.600;7.318;2022-09-09T03:58:49;100600.14;;;15.60;95.23
47811;BME280;33575;52.600;7.318;2022-09-09T04:01:19;100595.74;;;15.61;95.07
47811;BME280;33575;52.600;7.318;2022-09-09T04:03:50;100593.72;;;15.64;94.98
47811;BME280;33575;52.600;7.318;2022-09-09T04:06:20;100593.26;;;15.66;94.80
47811;BME280;33575;52.600;7.318;2022-09-09T04:08:50;100593.60;;;15.67;94.93
47811;BME280;33575;52.600;7.318;2022-09-09T04:11:21;100594.20;;;15.68;94.91
47811;BME280;33575;52.600;7.318;2022-09-09T04:13:51;100594.74;;;15.67;94.86
47811;BME280;33575;52.600;7.318;2022-09-09T04:16:22;100593.02;;;15.68;94.89
47811;BME280;33575;52.600;7.318;2022-09-09T04:18:52;100596.68;;;15.69;94.86
47811;BME280;33575;52.600;7.318;2022-09-09T04:21:22;100592.52;;;15.69;94.73
47811;BME280;33575;52.600;7.318;2022-09-09T04:23:53;100594.13;;;15.69;94.82
47811;BME280;33575;52.600;7.318;2022-09-09T04:26:23;100591.33;;;15.67;94.92
47811;BME280;33575;52.600;7.318;2022-09-09T04:28:53;100591.89;;;15.66;94.90
47811;BME280;33575;52.600;7.318;2022-09-09T04:31:24;100589.69;;;15.66;94.80
47811;BME280;33575;52.600;7.318;2022-09-09T04:33:54;100587.42;;;15.65;94.76
47811;BME280;33575;52.600;7.318;2022-09-09T04:36:25;100586.88;;;15.65;94.46
47811;BME280;33575;52.600;7.318;2022-09-09T04:38:55;100588.19;;;15.64;94.27
47811;BME280;33575;52.600;7.318;2022-09-09T04:41:25;100590.61;;;15.63;94.23
47811;BME280;33575;52.600;7.318;2022-09-09T04:43:56;100590.40;;;15.62;93.84
47811;BME280;33575;52.600;7.318;2022-09-09T04:46:27;100593.94;;;15.60;93.89
47811;BME280;33575;52.600;7.318;2022-09-09T04:48:57;100595.56;;;15.59;93.75
47811;BME280;33575;52.600;7.318;2022-09-09T04:51:27;100591.45;;;15.56;93.53
47811;BME280;33575;52.600;7.318;2022-09-09T04:53:58;100591.27;;;15.55;93.49
47811;BME280;33575;52.600;7.318;2022-09-09T04:56:28;100591.06;;;15.53;93.38
47811;BME280;33575;52.600;7.318;2022-09-09T04:58:58;100592.44;;;15.54;93.17
47811;BME280;33575;52.600;7.318;2022-09-09T05:01:29;100594.91;;;15.52;92.83
47811;BME280;33575;52.600;7.318;2022-09-09T05:03:59;100598.08;;;15.48;92.83
47811;BME280;33575;52.600;7.318;2022-09-09T05:06:29;100595.22;;;15.36;93.06
47811;BME280;33575;52.600;7.318;2022-09-09T05:09:00;100599.53;;;15.32;93.20
47811;BME280;33575;52.600;7.318;2022-09-09T05:11:32;100596.59;;;15.31;93.09
47811;BME280;33575;52.600;7.318;2022-09-09T05:14:01;100599.14;;;15.29;93.16
47811;BME280;33575;52.600;7.318;2022-09-09T05:16:31;100595.35;;;15.27;93.13
47811;BME280;33575;52.600;7.318;2022-09-09T05:19:02;100597.48;;;15.24;93.29
47811;BME280;33575;52.600;7.318;2022-09-09T05:21:32;100598.80;;;15.23;93.38
47811;BME280;33575;52.600;7.318;2022-09-09T05:24:03;100594.10;;;15.23;93.29
47811;BME280;33575;52.600;7.318;2022-09-09T05:26:33;100596.49;;;15.22;93.65
47811;BME280;33575;52.600;7.318;2022-09-09T05:29:03;100592.78;;;15.23;93.72
47811;BME280;33575;52.600;7.318;2022-09-09T05:31:34;100595.52;;;15.23;93.67
47811;BME280;33575;52.600;7.318;2022-09-09T05:34:04;100599.63;;;15.23;93.56
47811;BME280;33575;52.600;7.318;2022-09-09T05:36:34;100599.72;;;15.23;93.60
47811;BME280;33575;52.600;7.318;2022-09-09T05:39:04;100598.05;;;15.23;93.30
47811;BME280;33575;52.600;7.318;2022-09-09T05:41:34;100599.91;;;15.21;93.73
47811;BME280;33575;52.600;7.318;2022-09-09T05:44:05;100598.89;;;15.21;94.01
47811;BME280;33575;52.600;7.318;2022-09-09T05:46:35;100598.08;;;15.20;94.24
47811;BME280;33575;52.600;7.318;2022-09-09T05:49:06;100600.79;;;15.19;94.71
47811;BME280;33575;52.600;7.318;2022-09-09T05:51:36;100596.76;;;15.22;94.63
47811;BME280;33575;52.600;7.318;2022-09-09T05:54:07;100590.33;;;15.24;95.18
47811;BME280;33575;52.600;7.318;2022-09-09T05:56:37;100594.81;;;15.27;95.26
47811;BME280;33575;52.600;7.318;2022-09-09T05:59:07;100593.64;;;15.31;95.36
47811;BME280;33575;52.600;7.318;2022-09-09T06:01:38;100596.98;;;15.35;95.43
47811;BME280;33575;52.600;7.318;2022-09-09T06:04:08;100594.09;;;15.39;95.64
47811;BME280;33575;52.600;7.318;2022-09-09T06:06:39;100599.84;;;15.45;95.77
47811;BME280;33575;52.600;7.318;2022-09-09T06:09:09;100600.67;;;15.51;95.79
47811;BME280;33575;52.600;7.318;2022-09-09T06:11:40;100600.06;;;15.56;95.92
47811;BME280;33575;52.600;7.318;2022-09-09T06:14:09;100598.21;;;15.63;95.80
47811;BME280;33575;52.600;7.318;2022-09-09T06:16:40;100597.75;;;15.68;95.75
47811;BME280;33575;52.600;7.318;2022-09-09T06:19:10;100596.44;;;15.70;95.81
47811;BME280;33575;52.600;7.318;2022-09-09T06:21:41;100598.89;;;15.75;95.93
47811;BME280;33575;52.600;7.318;2022-09-09T06:24:11;100602.86;;;15.80;95.74
47811;BME280;33575;52.600;7.318;2022-09-09T06:26:41;100600.14;;;15.83;95.82
47811;BME280;33575;52.600;7.318;2022-09-09T06:29:12;100599.94;;;15.88;95.85
47811;BME280;33575;52.600;7.318;2022-09-09T06:31:42;100595.99;;;15.93;95.79
47811;BME280;33575;52.600;7.318;2022-09-09T06:34:13;100592.60;;;15.97;95.89
47811;BME280;33575;52.600;7.318;2022-09-09T06:36:43;100595.07;;;15.98;96.07
47811;BME280;33575;52.600;7.318;2022-09-09T06:39:16;100595.30;;;16.01;96.20
47811;BME280;33575;52.600;7.318;2022-09-09T06:41:44;100596.13;;;16.03;96.30
47811;BME280;33575;52.600;7.318;2022-09-09T06:44:14;100594.25;;;16.09;96.24
47811;BME280;33575;52.600;7.318;2022-09-09T06:46:45;100591.84;;;16.16;96.33
47811;BME280;33575;52.600;7.318;2022-09-09T06:49:15;100587.89;;;16.19;96.76
47811;BME280;33575;52.600;7.318;2022-09-09T06:51:46;100591.49;;;16.25;97.13
47811;BME280;33575;52.600;7.318;2022-09-09T06:54:16;100585.72;;;16.28;97.30
47811;BME280;33575;52.600;7.318;2022-09-09T06:56:46;100583.47;;;16.32;98.03
47811;BME280;33575;52.600;7.318;2022-09-09T06:59:16;100585.81;;;16.34;98.52
47811;BME280;33575;52.600;7.318;2022-09-09T07:01:46;100584.04;;;16.43;98.38
47811;BME280;33575;52.600;7.318;2022-09-09T07:04:17;100595.36;;;16.49;98.16
47811;BME280;33575;52.600;7.318;2022-09-09T07:06:47;100596.18;;;16.60;97.74
47811;BME280;33575;52.600;7.318;2022-09-09T07:09:17;100596.11;;;16.64;98.03
47811;BME280;33575;52.600;7.318;2022-09-09T07:11:49;100597.12;;;16.69;97.88
47811;BME280;33575;52.600;7.318;2022-09-09T07:14:18;100606.58;;;16.69;98.05
47811;BME280;33575;52.600;7.318;2022-09-09T07:16:48;100600.44;;;16.73;98.06
47811;BME280;33575;52.600;7.318;2022-09-09T07:19:19;100598.34;;;16.73;97.84
47811;BME280;33575;52.600;7.318;2022-09-09T07:21:49;100599.27;;;16.75;97.62
47811;BME280;33575;52.600;7.318;2022-09-09T07:24:19;100593.57;;;16.74;97.62
47811;BME280;33575;52.600;7.318;2022-09-09T07:26:50;100596.38;;;16.77;97.72
47811;BME280;33575;52.600;7.318;2022-09-09T07:29:21;100596.29;;;16.79;97.62
47811;BME280;33575;52.600;7.318;2022-09-09T07:31:50;100596.42;;;16.88;97.34
47811;BME280;33575;52.600;7.318;2022-09-09T07:34:21;100601.64;;;16.93;97.40
47811;BME280;33575;52.600;7.318;2022-09-09T07:36:51;100598.20;;;16.94;97.47
47811;BME280;33575;52.600;7.318;2022-09-09T07:39:21;100599.10;;;16.97;97.30
47811;BME280;33575;52.600;7.318;2022-09-09T07:41:52;100601.17;;;16.99;97.28
47811;BME280;33575;52.600;7.318;2022-09-09T07:44:24;100597.85;;;17.04;97.00
47811;BME280;33575;52.600;7.318;2022-09-09T07:46:53;100603.40;;;17.08;96.85
47811;BME280;33575;52.600;7.318;2022-09-09T07:49:27;100603.91;;;17.07;96.94
47811;BME280;33575;52.600;7.318;2022-09-09T07:51:53;100603.70;;;17.11;96.67
47811;BME280;33575;52.600;7.318;2022-09-09T07:54:23;100606.54;;;17.10;96.76
47811;BME280;33575;52.600;7.318;2022-09-09T07:56:53;100604.05;;;17.11;96.84
47811;BME280;33575;52.600;7.318;2022-09-09T07:59:24;100603.18;;;17.16;96.71
47811;BME280;33575;52.600;7.318;2022-09-09T08:01:54;100603.03;;;17.14;96.86
47811;BME280;33575;52.600;7.318;2022-09-09T08:04:25;100608.80;;;17.20;96.83
47811;BME280;33575;52.600;7.318;2022-09-09T08:06:56;100610.25;;;17.24;96.93
47811;BME280;33575;52.600;7.318;2022-09-09T08:09:26;100607.56;;;17.26;97.18
47811;BME280;33575;52.600;7.318;2022-09-09T08:11:56;100603.44;;;17.26;97.32
47811;BME280;33575;52.600;7.318;2022-09-09T08:14:26;100600.99;;;17.24;97.41
47811;BME280;33575;52.600;7.318;2022-09-09T08:16:56;100603.13;;;17.32;96.94
47811;BME280;33575;52.600;7.318;2022-09-09T08:19:26;100605.22;;;17.36;97.30
47811;BME280;33575;52.600;7.318;2022-09-09T08:21:57;100607.08;;;17.44;97.52
47811;BME280;33575;52.600;7.318;2022-09-09T08:24:27;100608.82;;;17.49;97.91
47811;BME280;33575;52.600;7.318;2022-09-09T08:26:57;100607.92;;;17.54;97.69
47811;BME280;33575;52.600;7.318;2022-09-09T08:29:28;100608.11;;;17.57;97.54
47811;BME280;33575;52.600;7.318;2022-09-09T08:31:58;100608.20;;;17.61;97.51
47811;BME280;33575;52.600;7.318;2022-09-09T08:34:28;100608.66;;;17.60;95.85
47811;BME280;33575;52.600;7.318;2022-09-09T08:36:59;100606.90;;;17.68;96.84
47811;BME280;33575;52.600;7.318;2022-09-09T08:39:29;100609.83;;;17.54;96.04
47811;BME280;33575;52.600;7.318;2022-09-09T08:42:14;100612.73;;;17.54;96.84
47811;BME280;33575;52.600;7.318;2022-09-09T08:44:40;100611.94;;;17.59;96.99
47811;BME280;33575;52.600;7.318;2022-09-09T08:47:04;100613.57;;;17.54;96.91
47811;BME280;33575;52.600;7.318;2022-09-09T08:49:40;100612.87;;;17.56;95.60
47811;BME280;33575;52.600;7.318;2022-09-09T08:52:02;100617.57;;;17.46;95.10
47811;BME280;33575;52.600;7.318;2022-09-09T08:54:36;100618.85;;;17.65;95.16
47811;BME280;33575;52.600;7.318;2022-09-09T08:57:01;100618.06;;;17.66;96.52
47811;BME280;33575;52.600;7.318;2022-09-09T08:59:31;100625.28;;;17.79;95.70
47811;BME280;33575;52.600;7.318;2022-09-09T09:02:08;100627.98;;;17.77;94.94
47811;BME280;33575;52.600;7.318;2022-09-09T09:04:44;100631.52;;;17.72;94.85
47811;BME280;33575;52.600;7.318;2022-09-09T09:07:09;100634.07;;;17.87;94.34
47811;BME280;33575;52.600;7.318;2022-09-09T09:09:40;100628.78;;;17.87;94.06
47811;BME280;33575;52.600;7.318;2022-09-09T09:12:15;100628.48;;;18.05;95.02
47811;BME280;33575;52.600;7.318;2022-09-09T09:14:35;100634.56;;;18.13;95.48
47811;BME280;33575;52.600;7.318;2022-09-09T09:17:06;100632.09;;;18.17;94.86
47811;BME280;33575;52.600;7.318;2022-09-09T09:19:35;100631.38;;;18.27;93.92
47811;BME280;33575;52.600;7.318;2022-09-09T09:22:10;100632.78;;;18.40;94.14
47811;BME280;33575;52.600;7.318;2022-09-09T09:24:40;100632.02;;;18.43;93.24
47811;BME280;33575;52.600;7.318;2022-09-09T09:27:13;100631.82;;;18.48;92.64
47811;BME280;33575;52.600;7.318;2022-09-09T09:29:40;100634.23;;;18.53;92.61
47811;BME280;33575;52.600;7.318;2022-09-09T09:32:07;100634.94;;;18.48;94.05
47811;BME280;33575;52.600;7.318;2022-09-09T09:34:36;100634.40;;;18.49;93.19
47811;BME280;33575;52.600;7.318;2022-09-09T09:37:22;100628.80;;;18.54;91.83
47811;BME280;33575;52.600;7.318;2022-09-09T09:39:41;100626.72;;;18.59;92.58
47811;BME280;33575;52.600;7.318;2022-09-09T09:42:10;100629.60;;;18.63;91.65
47811;BME280;33575;52.600;7.318;2022-09-09T09:44:37;100626.87;;;18.73;92.59
47811;BME280;33575;52.600;7.318;2022-09-09T09:47:10;100630.10;;;18.69;90.36
47811;BME280;33575;52.600;7.318;2022-09-09T09:49:37;100628.22;;;18.74;91.10
47811;BME280;33575;52.600;7.318;2022-09-09T09:52:15;100630.23;;;18.78;91.98
47811;BME280;33575;52.600;7.318;2022-09-09T09:54:39;100629.04;;;18.86;92.65
47811;BME280;33575;52.600;7.318;2022-09-09T09:57:10;100629.97;;;18.90;90.88
47811;BME280;33575;52.600;7.318;2022-09-09T09:59:42;100628.12;;;18.81;91.60
47811;BME280;33575;52.600;7.318;2022-09-09T10:02:16;100632.68;;;18.87;91.94
47811;BME280;33575;52.600;7.318;2022-09-09T10:04:39;100625.58;;;18.86;89.86
47811;BME280;33575;52.600;7.318;2022-09-09T10:07:11;100626.27;;;18.89;87.90
47811;BME280;33575;52.600;7.318;2022-09-09T10:09:40;100621.34;;;18.86;88.17
47811;BME280;33575;52.600;7.318;2022-09-09T10:12:19;100619.61;;;18.93;87.47
47811;BME280;33575;52.600;7.318;2022-09-09T10:14:47;100618.72;;;19.04;88.92
47811;BME280;33575;52.600;7.318;2022-09-09T10:17:19;100614.55;;;19.12;87.92
47811;BME280;33575;52.600;7.318;2022-09-09T10:19:48;100615.32;;;19.20;85.91
47811;BME280;33575;52.600;7.318;2022-09-09T10:22:21;100610.11;;;19.05;88.63
47811;BME280;33575;52.600;7.318;2022-09-09T10:27:19;100604.71;;;19.07;85.95
47811;BME280;33575;52.600;7.318;2022-09-09T10:29:56;100610.41;;;19.21;87.11
47811;BME280;33575;52.600;7.318;2022-09-09T10:32:28;100610.75;;;19.30;87.49
47811;BME280;33575;52.600;7.318;2022-09-09T10:34:56;100609.33;;;19.34;86.96
47811;BME280;33575;52.600;7.318;2022-09-09T10:37:20;100608.48;;;19.34;85.74
47811;BME280;33575;52.600;7.318;2022-09-09T10:39:44;100609.53;;;19.32;86.59
47811;BME280;33575;52.600;7.318;2022-09-09T10:42:16;100611.10;;;19.14;86.77
47811;BME280;33575;52.600;7.318;2022-09-09T10:44:54;100600.51;;;19.04;82.40
47811;BME280;33575;52.600;7.318;2022-09-09T10:47:27;100603.87;;;19.13;86.58
47811;BME280;33575;52.600;7.318;2022-09-09T10:50:03;100604.16;;;19.23;85.54
47811;BME280;33575;52.600;7.318;2022-09-09T10:52:21;100597.83;;;19.29;84.30
47811;BME280;33575;52.600;7.318;2022-09-09T10:54:54;100598.61;;;19.26;86.99
47811;BME280;33575;52.600;7.318;2022-09-09T10:57:21;100594.70;;;19.29;84.85
47811;BME280;33575;52.600;7.318;2022-09-09T10:59:50;100599.69;;;19.54;82.93
47811;BME280;33575;52.600;7.318;2022-09-09T11:02:22;100595.41;;;19.61;85.22
47811;BME280;33575;52.600;7.318;2022-09-09T11:04:50;100594.57;;;19.73;84.10
47811;BME280;33575;52.600;7.318;2022-09-09T11:07:25;100594.73;;;19.66;81.90
47811;BME280;33575;52.600;7.318;2022-09-09T11:09:52;100598.39;;;19.64;82.54
47811;BME280;33575;52.600;7.318;2022-09-09T11:12:19;100603.40;;;19.70;83.83
47811;BME280;33575;52.600;7.318;2022-09-09T11:14:51;100598.43;;;19.68;83.25
47811;BME280;33575;52.600;7.318;2022-09-09T11:17:22;100602.22;;;19.60;82.56
47811;BME280;33575;52.600;7.318;2022-09-09T11:19:49;100603.48;;;19.54;81.17
47811;BME280;33575;52.600;7.318;2022-09-09T11:22:25;100602.27;;;19.59;81.37
47811;BME280;33575;52.600;7.318;2022-09-09T11:24:51;100601.90;;;19.52;81.89
47811;BME280;33575;52.600;7.318;2022-09-09T11:27:23;100604.00;;;19.58;82.32
47811;BME280;33575;52.600;7.318;2022-09-09T11:30:02;100597.49;;;19.56;81.84
47811;BME280;33575;52.600;7.318;2022-09-09T11:32:33;100597.90;;;19.58;79.40
47811;BME280;33575;52.600;7.318;2022-09-09T11:34:54;100600.27;;;19.76;80.97
47811;BME280;33575;52.600;7.318;2022-09-09T11:37:34;100600.91;;;19.71;81.76
47811;BME280;33575;52.600;7.318;2022-09-09T11:40:00;100606.04;;;19.69;80.19
47811;BME280;33575;52.600;7.318;2022-09-09T11:42:23;100606.34;;;19.75;79.75
47811;BME280;33575;52.600;7.318;2022-09-09T11:44:52;100607.06;;;19.85;81.07
47811;BME280;33575;52.600;7.318;2022-09-09T11:47:23;100608.07;;;19.88;79.19
47811;BME280;33575;52.600;7.318;2022-09-09T11:49:52;100605.76;;;19.89;79.58
47811;BME280;33575;52.600;7.318;2022-09-09T11:52:24;100615.22;;;19.75;78.67
47811;BME280;33575;52.600;7.318;2022-09-09T11:54:55;100603.77;;;19.74;80.26
47811;BME280;33575;52.600;7.318;2022-09-09T11:57:26;100603.03;;;19.94;79.30
47811;BME280;33575;52.600;7.318;2022-09-09T11:59:53;100603.83;;;20.14;81.07
47811;BME280;33575;52.600;7.318;2022-09-09T12:02:25;100596.52;;;20.13;80.72
47811;BME280;33575;52.600;7.318;2022-09-09T12:04:57;100597.90;;;20.21;77.10
47811;BME280;33575;52.600;7.318;2022-09-09T12:07:30;100597.52;;;20.24;77.56
47811;BME280;33575;52.600;7.318;2022-09-09T12:09:57;100591.30;;;20.21;75.35
47811;BME280;33575;52.600;7.318;2022-09-09T12:12:28;100590.56;;;20.42;77.52
47811;BME280;33575;52.600;7.318;2022-09-09T12:17:26;100591.97;;;20.48;78.63
47811;BME280;33575;52.600;7.318;2022-09-09T12:20:00;100586.75;;;20.62;76.28
47811;BME280;33575;52.600;7.318;2022-09-09T12:22:30;100585.81;;;20.63;74.87
47811;BME280;33575;52.600;7.318;2022-09-09T12:25:01;100584.81;;;20.47;72.65
47811;BME280;33575;52.600;7.318;2022-09-09T12:27:30;100579.98;;;20.50;74.05
47811;BME280;33575;52.600;7.318;2022-09-09T12:30:01;100581.43;;;20.63;73.86
47811;BME280;33575;52.600;7.318;2022-09-09T12:32:26;100584.25;;;20.72;75.98
47811;BME280;33575;52.600;7.318;2022-09-09T12:35:00;100580.63;;;20.62;71.30
47811;BME280;33575;52.600;7.318;2022-09-09T12:37:33;100579.15;;;20.55;74.35
47811;BME280;33575;52.600;7.318;2022-09-09T12:39:59;100580.76;;;20.70;74.19
47811;BME280;33575;52.600;7.318;2022-09-09T12:42:27;100573.38;;;20.76;76.46
47811;BME280;33575;52.600;7.318;2022-09-09T12:44:59;100562.83;;;20.70;74.29
47811;BME280;33575;52.600;7.318;2022-09-09T12:47:38;100572.27;;;20.61;71.82
47811;BME280;33575;52.600;7.318;2022-09-09T12:49:58;100564.93;;;20.61;73.22
47811;BME280;33575;52.600;7.318;2022-09-09T12:52:32;100561.72;;;20.76;72.88
47811;BME280;33575;52.600;7.318;2022-09-09T12:55:00;100566.54;;;20.79;72.42
47811;BME280;33575;52.600;7.318;2022-09-09T12:57:33;100566.42;;;20.82;72.22
47811;BME280;33575;52.600;7.318;2022-09-09T13:00:04;100566.57;;;20.82;74.14
47811;BME280;33575;52.600;7.318;2022-09-09T13:02:29;100560.77;;;20.74;73.74
47811;BME280;33575;52.600;7.318;2022-09-09T13:05:12;100567.65;;;20.88;74.47
47811;BME280;33575;52.600;7.318;2022-09-09T13:07:29;100565.84;;;20.87;74.29
47811;BME280;33575;52.600;7.318;2022-09-09T13:10:00;100568.32;;;20.86;74.11
47811;BME280;33575;52.600;7.318;2022-09-09T13:12:30;100566.65;;;20.75;74.85